CheckWX is a tool to help pilots better visualize weather data.  It is not intended as a substitute for an official pre-flight weather briefing.

16:56:45 UTC

KAWM METAR
West Memphis Municipal Airport
West Memphis, Arkansas, USA
Current

1 hour ago

KAWM 111553Z AUTO 18005KT 10SM CLR 04/M02 A3059 RMK AO2 SLP361 T00391017
Observed
Dec-11 @ 15:53 UTC
Wind
  • 180° at 5 KTS
Visibility
10 SM
Flight Rules
VFR
Cloud Levels
  • Clear skies
Temperature
C / 39°F
Dewpoint
-2°C / 28°F
Humidity
65%
Altimeter
30.59" Hg
Pressure
1035.92 hPa
Previous

2 hours ago

KAWM 111453Z AUTO 19006KT 10SM CLR 02/M01 A3058 RMK AO2 SLP358 I3001 T00221011 53030
Observed
Dec-11 @ 14:53 UTC
Wind
  • 190° at 6 KTS
Visibility
10 SM
Flight Rules
VFR
Cloud Levels
  • Clear skies
Temperature
C / 36°F
Dewpoint
-1°C / 30°F
Humidity
81%
Altimeter
30.58" Hg
Pressure
1035.52 hPa
Previous

3 hours ago

KAWM 111353Z AUTO 19005KT 10SM CLR M01/M02 A3055 RMK AO2 SLP347 T10061017
Observed
Dec-11 @ 13:53 UTC
Wind
  • 190° at 5 KTS
Visibility
10 SM
Flight Rules
VFR
Cloud Levels
  • Clear skies
Temperature
-1°C / 30°F
Dewpoint
-2°C / 28°F
Humidity
93%
Altimeter
30.55" Hg
Pressure
1034.52 hPa